Terminal Aerodrome Forecast
Issued by NWS

Home | Current Version | Previous Version | Text Only | Print | Product List | Glossary On
Versions: 1 2 3 4 5 6 7 8 9 10 11 12 13 14
877
FTUS46 KSEW 242320
TAFBLI
TAF
KBLI 242320Z 2500/2524 27005KT P6SM FEW050 FEW250
     FM250300 00000KT P6SM SCT250
     FM251900 30006KT P6SM SCT250=

USA.gov is the U.S. government's official web portal to all federal, state and local government web resources and services.